Guanghan Airport


Codes: ZUGH/GHN
Name: Guanghan Airport
City: Civil Aviation Flight University of China
Country: China
Elevation: 1531 ft.

Photos at Guanghan Airport


   Photos courtesy of SpottingLog. You can add your own sightings and photos by signing up for a free trial today.



No photos found.

Weather at Guanghan Airport


Time (UTC)DescriptionTempratureWindCloud coverageVisibilityPressureHumidity
21-Jun-2024 15:00Overcast Clouds25°C4 mph, W99%10000m1002hPa74%
21-Jun-2024 18:00Overcast Clouds25°C7 mph, W99%10000m1002hPa67%
21-Jun-2024 21:00Overcast Clouds26°C9 mph, NW100%10000m1001hPa47%
22-Jun-2024 00:00Overcast Clouds26°C2 mph, SW100%10000m1002hPa49%
22-Jun-2024 03:00Overcast Clouds27°C4 mph, S100%10000m1004hPa53%
22-Jun-2024 06:00Broken Clouds33°C9 mph, SE74%10000m1002hPa36%
22-Jun-2024 09:00Few Clouds32°C9 mph, E12%10000m1001hPa36%
22-Jun-2024 12:00Few Clouds27°C7 mph, SE24%10000m1003hPa65%
22-Jun-2024 15:00Broken Clouds24°C0 mph, E51%10000m1005hPa74%
22-Jun-2024 18:00Broken Clouds23°C2 mph, E67%10000m1004hPa77%
22-Jun-2024 21:00Broken Clouds22°C2 mph, NE81%10000m1004hPa80%
23-Jun-2024 00:00Overcast Clouds24°C2 mph, E90%10000m1006hPa72%
23-Jun-2024 03:00Overcast Clouds28°C0 mph, E100%10000m1005hPa58%
23-Jun-2024 06:00Overcast Clouds29°C0 mph, E100%10000m1004hPa54%
23-Jun-2024 09:00Overcast Clouds30°C4 mph, N100%10000m1003hPa55%
23-Jun-2024 12:00Overcast Clouds27°C4 mph, NE100%10000m1004hPa65%
23-Jun-2024 15:00Overcast Clouds26°C0 mph, NW100%10000m1007hPa65%
23-Jun-2024 18:00Light Rain25°C2 mph, NW100%10000m1006hPa71%
23-Jun-2024 21:00Overcast Clouds25°C2 mph, S100%10000m1006hPa73%
24-Jun-2024 00:00Overcast Clouds26°C0 mph, S100%10000m1008hPa75%
24-Jun-2024 03:00Overcast Clouds28°C2 mph, S100%10000m1008hPa67%
24-Jun-2024 06:00Overcast Clouds30°C9 mph, S100%10000m1007hPa55%
24-Jun-2024 09:00Overcast Clouds32°C9 mph, S97%10000m1005hPa46%
24-Jun-2024 12:00Light Rain26°C11 mph, S98%10000m1007hPa65%
24-Jun-2024 15:00Overcast Clouds24°C7 mph, SW100%10000m1009hPa68%
24-Jun-2024 18:00Overcast Clouds22°C4 mph, SW100%10000m1008hPa71%
24-Jun-2024 21:00Overcast Clouds21°C0 mph, SE100%10000m1008hPa73%
25-Jun-2024 00:00Overcast Clouds23°C4 mph, NE100%10000m1010hPa71%
25-Jun-2024 03:00Overcast Clouds28°C4 mph, SE100%10000m1010hPa54%
25-Jun-2024 06:00Overcast Clouds30°C7 mph, S100%10000m1008hPa49%
25-Jun-2024 09:00Broken Clouds30°C13 mph, S79%10000m1007hPa47%
25-Jun-2024 12:00Broken Clouds26°C11 mph, S60%10000m1009hPa68%
25-Jun-2024 15:00Scattered Clouds23°C4 mph, SW39%10000m1010hPa78%
25-Jun-2024 18:00Few Clouds21°C4 mph, S21%10000m1010hPa85%
25-Jun-2024 21:00Broken Clouds20°C2 mph, SW74%10000m1009hPa88%
26-Jun-2024 00:00Broken Clouds23°C2 mph, NE78%10000m1011hPa78%
26-Jun-2024 03:00Broken Clouds28°C4 mph, NE84%10000m1010hPa57%
26-Jun-2024 06:00Broken Clouds31°C7 mph, E76%10000m1007hPa44%
26-Jun-2024 09:00Overcast Clouds29°C11 mph, SE90%10000m1006hPa53%
26-Jun-2024 12:00Light Rain24°C9 mph, SE87%10000m1008hPa82%